Time;durP1;ratioP1;P1;durP2;ratioP2;P2;SDS_P1;SDS_P2;PMS_P1;PMS_P2;Temp;Humidity;BMP_temperature;BMP_pressure;BME280_temperature;BME280_humidity;BME280_pressure;Samples;Min_cycle;Max_cycle;Signal;HPM_P1;HPM_P2
2022/05/14 00:00:47;;;;;;;1.33;1.33;;;21.00;59.00;;;;;;5096766;28;20495;-68
2022/05/14 00:03:14;;;;;;;1.80;1.70;;;21.00;59.20;;;;;;5096711;28;20872;-70
2022/05/14 00:05:41;;;;;;;1.80;1.70;;;21.00;59.30;;;;;;5095965;28;20470;-68
2022/05/14 00:08:07;;;;;;;1.47;1.10;;;21.00;59.30;;;;;;5095254;28;20440;-70
2022/05/14 00:13:21;;;;;;;1.43;1.33;;;21.00;59.40;;;;;;5096837;28;20395;-69
2022/05/14 00:15:47;;;;;;;2.00;1.90;;;20.90;59.50;;;;;;5096408;28;20420;-69
2022/05/14 00:18:13;;;;;;;1.80;1.70;;;21.00;59.40;;;;;;5096454;28;20411;-70
2022/05/14 00:20:39;;;;;;;2.07;1.93;;;21.00;59.40;;;;;;5096383;28;20227;-71
2022/05/14 00:23:06;;;;;;;1.70;1.23;;;21.00;59.50;;;;;;5096387;28;20166;-68
2022/05/14 00:25:33;;;;;;;2.00;1.40;;;21.00;59.40;;;;;;5095309;28;20808;-69
2022/05/14 00:27:59;;;;;;;1.20;1.00;;;21.00;59.30;;;;;;5095349;28;20413;-68
2022/05/14 00:30:27;;;;;;;2.13;1.80;;;21.00;59.00;;;;;;5096183;28;20869;-70
2022/05/14 00:32:54;;;;;;;1.57;1.20;;;21.00;59.00;;;;;;5096164;28;20596;-69
2022/05/14 00:35:20;;;;;;;1.23;1.10;;;21.00;58.90;;;;;;5096112;28;20482;-69
2022/05/14 00:37:46;;;;;;;1.40;1.30;;;21.00;58.70;;;;;;5091034;28;20417;-68
2022/05/14 00:40:25;;;;;;;1.80;1.60;;;21.00;58.20;;;;;;5083741;28;20413;-69
2022/05/14 00:42:52;;;;;;;1.90;1.03;;;21.00;58.30;;;;;;5077573;28;20920;-68
2022/05/14 00:45:19;;;;;;;1.30;1.20;;;21.00;58.10;;;;;;5095876;28;20441;-68
2022/05/14 00:47:48;;;;;;;1.50;1.40;;;21.00;58.20;;;;;;5095628;28;20925;-70
2022/05/14 00:50:34;;;;;;;1.23;1.10;;;21.00;58.10;;;;;;5095717;28;20471;-69
2022/05/14 00:53:15;;;;;;;1.20;1.10;;;21.00;57.80;;;;;;5095866;28;20446;-69
2022/05/14 00:55:43;;;;;;;1.63;1.33;;;21.00;57.80;;;;;;5094704;28;20914;-69
2022/05/14 00:58:12;;;;;;;1.93;1.17;;;20.90;57.70;;;;;;5094686;28;20477;-69
2022/05/14 01:00:39;;;;;;;1.10;1.10;;;21.00;57.70;;;;;;5095609;28;20417;-68
2022/05/14 01:03:05;;;;;;;1.43;1.33;;;20.90;57.90;;;;;;5095562;28;20745;-69
2022/05/14 01:05:31;;;;;;;1.50;1.40;;;21.00;57.50;;;;;;5095373;28;20419;-69
2022/05/14 01:08:01;;;;;;;1.60;1.50;;;21.00;57.80;;;;;;5095433;28;21154;-69
2022/05/14 01:10:32;;;;;;;1.30;1.20;;;21.00;57.60;;;;;;5095359;28;20455;-69
2022/05/14 01:13:00;;;;;;;1.20;1.10;;;21.00;57.70;;;;;;5095459;28;20499;-69
2022/05/14 01:15:41;;;;;;;1.40;1.10;;;21.00;57.40;;;;;;5095237;28;20480;-69
2022/05/14 01:18:06;;;;;;;1.97;1.10;;;20.90;57.40;;;;;;5095110;28;20397;-70
2022/05/14 01:20:35;;;;;;;1.80;1.30;;;21.00;57.50;;;;;;5095200;28;20423;-70
2022/05/14 01:23:25;;;;;;;1.53;1.43;;;21.00;57.30;;;;;;5095178;28;20178;-70
2022/05/14 01:26:27;;;;;;;1.40;1.30;;;21.00;57.40;;;;;;5095041;28;20416;-71
2022/05/14 01:28:54;;;;;;;1.03;0.90;;;21.00;57.40;;;;;;5095150;28;20388;-70
2022/05/14 01:31:20;;;;;;;1.47;1.30;;;20.90;57.50;;;;;;5095015;28;20448;-69
2022/05/14 01:33:45;;;;;;;1.20;1.10;;;21.00;57.50;;;;;;5094947;28;20407;-69
2022/05/14 01:36:11;;;;;;;1.93;1.60;;;20.90;57.40;;;;;;5094905;28;20178;-69
2022/05/14 01:38:37;;;;;;;1.77;1.67;;;20.90;57.70;;;;;;5094932;28;20711;-69
2022/05/14 01:41:03;;;;;;;2.63;1.50;;;20.90;57.40;;;;;;5094874;28;20166;-69
2022/05/14 01:43:29;;;;;;;1.40;1.30;;;20.90;57.40;;;;;;5094863;28;20621;-69
2022/05/14 01:45:55;;;;;;;1.67;1.57;;;20.90;57.00;;;;;;5094660;28;20424;-68
2022/05/14 01:48:21;;;;;;;1.93;1.83;;;20.90;57.50;;;;;;5094529;28;20483;-69
2022/05/14 01:50:46;;;;;;;2.13;1.70;;;20.90;57.00;;;;;;5094676;28;20216;-68
2022/05/14 01:53:12;;;;;;;1.80;1.67;;;20.90;57.20;;;;;;5094689;28;20163;-70
2022/05/14 01:55:38;;;;;;;1.83;1.73;;;20.90;56.80;;;;;;5094593;28;20220;-70
2022/05/14 02:00:48;;;;;;;1.67;1.57;;;21.00;57.20;;;;;;5094843;28;20173;-68
2022/05/14 02:03:14;;;;;;;1.87;1.77;;;21.00;57.10;;;;;;5094517;28;20881;-69
2022/05/14 02:05:39;;;;;;;2.50;2.07;;;20.90;57.20;;;;;;5094471;28;21851;-69
2022/05/14 02:08:05;;;;;;;1.63;1.53;;;20.90;57.00;;;;;;5094491;28;20249;-69
2022/05/14 02:10:31;;;;;;;1.63;1.53;;;20.90;56.90;;;;;;5094309;28;20198;-69
2022/05/14 02:12:57;;;;;;;1.90;1.67;;;20.90;56.90;;;;;;5094489;28;20193;-70
2022/05/14 02:15:24;;;;;;;1.60;1.50;;;20.90;57.40;;;;;;5094343;28;20169;-69
2022/05/14 02:17:50;;;;;;;1.80;1.70;;;20.90;57.70;;;;;;5093429;28;20731;-69
2022/05/14 02:20:16;;;;;;;1.83;1.53;;;20.90;57.20;;;;;;5094346;28;20432;-68
2022/05/14 02:22:42;;;;;;;2.37;2.03;;;20.90;57.20;;;;;;5093377;28;20892;-69
2022/05/14 02:25:08;;;;;;;1.90;1.33;;;21.00;57.10;;;;;;5094327;28;20444;-69
2022/05/14 02:27:34;;;;;;;1.97;1.63;;;21.00;57.20;;;;;;5094245;28;20643;-68
2022/05/14 02:30:00;;;;;;;1.77;1.67;;;21.00;57.60;;;;;;5095919;28;20450;-69
2022/05/14 02:32:27;;;;;;;1.57;1.47;;;20.90;57.70;;;;;;5098537;28;20315;-68
2022/05/14 02:34:53;;;;;;;2.00;1.20;;;20.90;57.40;;;;;;5098402;28;20634;-69
2022/05/14 02:37:22;;;;;;;1.77;1.67;;;20.90;57.70;;;;;;5098324;28;20434;-69
2022/05/14 02:39:49;;;;;;;3.23;1.70;;;20.90;57.50;;;;;;5098598;28;20838;-69
2022/05/14 02:42:15;;;;;;;1.97;1.30;;;20.90;57.70;;;;;;5098343;28;20796;-69
2022/05/14 02:44:40;;;;;;;1.57;1.47;;;20.90;57.40;;;;;;5098243;28;20499;-68
2022/05/14 02:47:07;;;;;;;1.43;1.33;;;20.90;57.20;;;;;;5098049;28;20555;-69
2022/05/14 02:49:32;;;;;;;1.60;1.50;;;20.90;57.50;;;;;;5098108;28;20175;-69
2022/05/14 02:51:58;;;;;;;1.63;1.53;;;20.90;57.70;;;;;;5098171;28;20407;-68
2022/05/14 02:54:24;;;;;;;2.37;2.00;;;20.90;57.90;;;;;;5098427;28;20653;-69
2022/05/14 02:56:50;;;;;;;1.93;1.67;;;20.90;57.90;;;;;;5096956;28;20195;-68
2022/05/14 02:59:16;;;;;;;1.60;1.50;;;20.90;57.70;;;;;;5097983;28;20786;-70
2022/05/14 03:01:48;;;;;;;2.60;1.80;;;20.90;57.70;;;;;;5097958;28;20530;-70
2022/05/14 03:04:27;;;;;;;2.07;1.93;;;20.90;58.00;;;;;;5097974;28;20151;-69
2022/05/14 03:06:54;;;;;;;2.30;2.20;;;20.90;58.00;;;;;;5097803;28;20431;-69
2022/05/14 03:09:20;;;;;;;2.13;1.90;;;20.90;57.90;;;;;;5098104;28;20498;-69
2022/05/14 03:11:46;;;;;;;1.80;1.70;;;20.90;57.40;;;;;;5096690;28;20471;-68
2022/05/14 03:14:12;;;;;;;1.97;1.87;;;20.90;57.50;;;;;;5097728;28;20424;-68
2022/05/14 03:16:42;;;;;;;1.87;1.77;;;20.90;57.90;;;;;;5097594;28;20430;-68
2022/05/14 03:19:08;;;;;;;1.70;1.60;;;20.90;58.00;;;;;;5097948;28;20408;-70
2022/05/14 03:21:35;;;;;;;2.03;1.90;;;20.90;57.70;;;;;;5097579;28;20408;-70
2022/05/14 03:24:01;;;;;;;2.23;2.03;;;20.90;58.00;;;;;;5097486;28;20504;-70
2022/05/14 03:26:26;;;;;;;2.47;2.10;;;20.90;57.50;;;;;;5097366;28;20888;-69
2022/05/14 03:28:52;;;;;;;2.00;1.80;;;20.90;57.70;;;;;;5097464;28;20181;-68
2022/05/14 03:31:18;;;;;;;2.00;1.80;;;20.90;57.50;;;;;;5097290;28;20226;-69
2022/05/14 03:33:44;;;;;;;2.00;1.90;;;20.90;57.40;;;;;;5096326;28;20554;-68
2022/05/14 03:36:10;;;;;;;3.60;2.00;;;20.90;57.50;;;;;;5097470;28;20416;-69
2022/05/14 03:38:36;;;;;;;2.80;2.43;;;20.90;57.70;;;;;;5097229;28;20236;-70
2022/05/14 03:41:03;;;;;;;2.10;2.00;;;20.90;57.90;;;;;;5097176;28;20171;-68
2022/05/14 03:43:30;;;;;;;2.10;1.90;;;20.90;57.70;;;;;;5097114;28;20421;-68
2022/05/14 03:45:56;;;;;;;2.23;2.00;;;20.90;57.70;;;;;;5097054;28;20497;-69
2022/05/14 03:48:22;;;;;;;2.40;1.90;;;20.90;56.90;;;;;;5095915;28;20585;-69
2022/05/14 03:50:48;;;;;;;2.30;2.10;;;20.90;57.50;;;;;;5096978;28;20551;-69
2022/05/14 03:53:13;;;;;;;2.17;2.07;;;20.90;56.90;;;;;;5097011;28;20573;-69
2022/05/14 03:55:40;;;;;;;2.10;2.00;;;20.90;57.40;;;;;;5096833;28;20171;-68
2022/05/14 03:58:05;;;;;;;2.07;1.97;;;20.90;56.90;;;;;;5096951;28;20247;-68
2022/05/14 04:00:31;;;;;;;2.90;2.20;;;20.90;56.80;;;;;;5096786;28;20521;-68
2022/05/14 04:02:57;;;;;;;1.67;1.53;;;20.90;57.00;;;;;;5096801;28;20205;-68
2022/05/14 04:05:22;;;;;;;2.20;2.00;;;20.90;56.80;;;;;;5096695;28;20231;-69
2022/05/14 04:07:48;;;;;;;1.70;1.60;;;20.90;56.90;;;;;;5096664;28;20524;-69
2022/05/14 04:10:18;;;;;;;1.93;1.80;;;20.90;56.80;;;;;;5096569;28;20225;-69
2022/05/14 04:12:44;;;;;;;1.90;1.80;;;20.90;56.70;;;;;;5096613;28;20166;-70
2022/05/14 04:15:11;;;;;;;1.70;1.60;;;20.90;56.70;;;;;;5096600;28;20408;-68
2022/05/14 04:17:37;;;;;;;1.70;1.57;;;20.90;56.70;;;;;;5096399;28;20204;-69
2022/05/14 04:20:04;;;;;;;2.13;1.80;;;20.90;56.90;;;;;;5096398;28;20412;-69
2022/05/14 04:22:31;;;;;;;1.73;1.63;;;20.90;56.90;;;;;;5096696;28;20490;-68
2022/05/14 04:24:57;;;;;;;1.90;1.80;;;20.90;57.20;;;;;;5096391;28;20744;-69
2022/05/14 04:27:22;;;;;;;2.03;1.83;;;20.90;57.20;;;;;;5096242;28;20420;-68
2022/05/14 04:29:48;;;;;;;1.70;1.60;;;20.90;57.20;;;;;;5096215;28;20203;-68
2022/05/14 04:32:14;;;;;;;1.70;1.60;;;20.90;57.40;;;;;;5096257;28;20170;-68
2022/05/14 04:34:41;;;;;;;1.67;1.57;;;20.90;57.20;;;;;;5096179;28;20599;-68
2022/05/14 04:37:06;;;;;;;2.00;1.80;;;20.90;57.40;;;;;;5095086;28;20425;-70
2022/05/14 04:39:32;;;;;;;2.33;2.13;;;20.90;57.20;;;;;;5095073;28;20424;-71
2022/05/14 04:42:00;;;;;;;1.90;1.70;;;20.90;57.70;;;;;;5096042;28;20253;-68
2022/05/14 04:44:27;;;;;;;1.80;1.70;;;20.90;57.70;;;;;;5096019;28;20619;-71
2022/05/14 04:46:53;;;;;;;2.27;1.83;;;20.90;57.50;;;;;;5095640;28;20451;-70
2022/05/14 04:49:18;;;;;;;1.67;1.57;;;20.90;57.50;;;;;;5095802;28;20424;-68
2022/05/14 04:51:44;;;;;;;1.90;1.80;;;20.90;57.50;;;;;;5095542;28;20186;-68
2022/05/14 04:54:09;;;;;;;2.13;1.93;;;20.90;57.40;;;;;;5095513;28;20158;-68
2022/05/14 04:56:35;;;;;;;2.60;1.80;;;20.90;57.40;;;;;;5095716;28;20194;-68
2022/05/14 04:59:01;;;;;;;1.87;1.77;;;20.90;57.50;;;;;;5095691;28;20679;-68
2022/05/14 05:01:26;;;;;;;1.60;1.50;;;20.90;57.70;;;;;;5095668;28;20176;-70
2022/05/14 05:03:52;;;;;;;1.73;1.63;;;20.90;57.50;;;;;;5095645;28;20164;-68
2022/05/14 05:06:18;;;;;;;1.63;1.53;;;20.80;57.90;;;;;;5095490;28;20241;-69
2022/05/14 05:08:44;;;;;;;1.50;1.40;;;20.80;57.70;;;;;;5095796;28;20236;-70
2022/05/14 05:11:10;;;;;;;1.83;1.73;;;20.80;57.90;;;;;;5095366;28;20436;-69
2022/05/14 05:13:37;;;;;;;1.70;1.60;;;20.80;58.00;;;;;;5095356;28;20495;-69
2022/05/14 05:16:03;;;;;;;1.50;1.40;;;20.80;58.00;;;;;;5094326;28;20429;-68
2022/05/14 05:18:29;;;;;;;1.70;1.30;;;20.80;58.20;;;;;;5094348;28;20417;-68
2022/05/14 05:20:55;;;;;;;1.50;1.40;;;20.80;58.50;;;;;;5095249;28;20414;-69
2022/05/14 05:23:23;;;;;;;1.90;1.80;;;20.80;58.70;;;;;;5094250;28;20624;-68
2022/05/14 05:25:49;;;;;;;3.83;1.80;;;20.80;58.70;;;;;;5094063;28;20463;-69
2022/05/14 05:28:15;;;;;;;1.73;1.63;;;20.80;58.70;;;;;;5095141;28;20782;-68
2022/05/14 05:30:41;;;;;;;1.63;1.40;;;20.80;58.90;;;;;;5095022;28;20493;-67
2022/05/14 05:33:22;;;;;;;1.83;1.73;;;20.80;59.10;;;;;;5095022;28;20509;-68
2022/05/14 05:35:49;;;;;;;1.57;1.43;;;20.80;59.00;;;;;;5094955;28;20274;-68
2022/05/14 05:38:15;;;;;;;1.50;1.40;;;20.80;59.00;;;;;;5094943;28;20396;-69
2022/05/14 05:40:41;;;;;;;1.40;1.30;;;20.80;59.30;;;;;;5094882;28;20885;-70
2022/05/14 05:43:09;;;;;;;1.77;1.67;;;20.80;59.50;;;;;;5094862;28;20401;-70
2022/05/14 05:45:35;;;;;;;1.70;1.60;;;20.80;59.50;;;;;;5094742;28;20900;-70
2022/05/14 05:48:01;;;;;;;1.70;1.60;;;20.80;59.20;;;;;;5094641;28;20569;-69
2022/05/14 05:50:27;;;;;;;2.10;1.90;;;20.80;59.70;;;;;;5094626;28;20548;-70
2022/05/14 05:52:54;;;;;;;2.00;1.83;;;20.80;59.60;;;;;;5094632;28;20499;-69
2022/05/14 05:58:05;;;;;;;1.87;1.73;;;20.80;59.60;;;;;;5095000;28;20450;-68
2022/05/14 06:00:31;;;;;;;1.87;1.70;;;20.80;59.70;;;;;;5094582;28;20413;-69
2022/05/14 06:02:57;;;;;;;1.70;1.53;;;20.80;59.60;;;;;;5094850;28;20415;-69
2022/05/14 06:05:23;;;;;;;1.70;1.60;;;20.80;59.50;;;;;;5093656;28;20162;-69
2022/05/14 06:07:49;;;;;;;1.80;1.70;;;20.80;59.70;;;;;;5094515;28;20473;-69
2022/05/14 06:10:18;;;;;;;1.80;1.70;;;20.80;59.90;;;;;;5093470;28;20444;-70
2022/05/14 06:12:46;;;;;;;1.83;1.57;;;20.80;59.80;;;;;;5094708;28;20419;-68
2022/05/14 06:15:17;;;;;;;1.60;1.50;;;20.80;59.80;;;;;;5093425;28;20416;-69
2022/05/14 06:17:45;;;;;;;1.73;1.40;;;20.90;59.90;;;;;;5093447;28;20421;-68
2022/05/14 06:20:13;;;;;;;1.80;1.70;;;20.80;59.70;;;;;;5091454;28;20836;-68
2022/05/14 06:22:39;;;;;;;1.63;1.53;;;20.90;59.80;;;;;;5077824;28;20463;-68
2022/05/14 06:25:07;;;;;;;1.50;1.40;;;20.90;59.90;;;;;;5087267;28;20468;-69
2022/05/14 06:27:33;;;;;;;1.60;1.50;;;20.90;60.00;;;;;;5076863;28;20261;-69
2022/05/14 06:29:59;;;;;;;1.80;1.70;;;20.90;59.80;;;;;;5074306;28;20569;-69
2022/05/14 06:32:24;;;;;;;2.10;1.90;;;20.90;60.00;;;;;;5074112;28;20402;-68
2022/05/14 06:34:50;;;;;;;1.50;1.40;;;20.90;59.80;;;;;;5074030;28;20257;-70
2022/05/14 06:37:16;;;;;;;1.50;1.40;;;20.90;59.90;;;;;;5080216;28;20265;-70
2022/05/14 06:39:42;;;;;;;1.63;1.53;;;20.90;60.10;;;;;;5094365;28;20176;-68
2022/05/14 06:42:10;;;;;;;1.73;1.63;;;20.90;60.20;;;;;;5084096;28;20214;-69
2022/05/14 06:44:36;;;;;;;1.73;1.63;;;20.90;60.10;;;;;;5077902;28;20444;-68
2022/05/14 06:47:02;;;;;;;1.40;1.30;;;20.90;60.00;;;;;;5080510;28;20503;-68
2022/05/14 06:49:27;;;;;;;2.03;1.93;;;20.90;60.10;;;;;;5085661;28;20175;-70
2022/05/14 06:51:57;;;;;;;2.00;1.63;;;20.90;60.00;;;;;;5056783;28;20204;-69
2022/05/14 06:54:22;;;;;;;2.27;2.07;;;20.90;60.10;;;;;;5061126;28;20183;-68
2022/05/14 06:56:48;;;;;;;1.80;1.70;;;20.90;60.10;;;;;;5061717;28;20426;-69
2022/05/14 06:59:14;;;;;;;1.63;1.53;;;20.90;60.20;;;;;;5053662;28;20177;-70
2022/05/14 07:01:43;;;;;;;1.70;1.60;;;20.90;60.10;;;;;;5053545;28;20417;-68
2022/05/14 07:06:57;;;;;;;1.70;1.60;;;20.90;60.10;;;;;;5053842;28;20483;-70
2022/05/14 07:09:27;;;;;;;1.80;1.70;;;20.90;60.10;;;;;;5053576;28;20514;-68
2022/05/14 07:12:00;;;;;;;1.80;1.70;;;20.90;60.20;;;;;;5069686;28;20198;-70
2022/05/14 07:14:27;;;;;;;2.07;1.50;;;20.90;60.20;;;;;;5073948;28;20431;-68
2022/05/14 07:16:54;;;;;;;1.80;1.70;;;20.80;59.90;;;;;;5092417;28;20866;-70
2022/05/14 07:19:20;;;;;;;1.90;1.80;;;20.90;60.10;;;;;;5077353;28;20482;-70
2022/05/14 07:21:47;;;;;;;1.90;1.80;;;20.90;60.10;;;;;;5077516;28;20416;-70
2022/05/14 07:24:16;;;;;;;1.80;1.70;;;20.90;60.10;;;;;;5077305;28;20467;-69
2022/05/14 07:26:43;;;;;;;1.60;1.50;;;20.90;60.10;;;;;;5077116;28;20956;-69
2022/05/14 07:29:12;;;;;;;1.57;1.47;;;20.90;60.10;;;;;;5077194;28;20440;-69
2022/05/14 07:31:39;;;;;;;1.50;1.40;;;20.90;60.20;;;;;;5077300;28;20538;-69
2022/05/14 07:34:06;;;;;;;1.20;1.20;;;20.90;60.10;;;;;;5093085;28;20492;-69
2022/05/14 07:36:37;;;;;;;1.93;1.60;;;20.90;60.10;;;;;;5076978;28;20504;-69
2022/05/14 07:39:04;;;;;;;1.83;1.73;;;20.90;60.10;;;;;;5077008;28;20413;-68
2022/05/14 07:41:32;;;;;;;1.53;1.43;;;20.90;60.10;;;;;;5077158;28;20496;-69
2022/05/14 07:44:00;;;;;;;1.83;1.73;;;20.90;60.10;;;;;;5077206;28;20409;-68
2022/05/14 07:46:30;;;;;;;1.50;1.40;;;20.90;60.00;;;;;;5076868;28;20430;-68
2022/05/14 07:48:58;;;;;;;1.60;1.50;;;20.90;60.10;;;;;;5076879;28;20410;-70
2022/05/14 07:51:25;;;;;;;1.60;1.50;;;20.90;60.10;;;;;;5076736;28;20449;-68
2022/05/14 07:53:52;;;;;;;1.50;1.30;;;20.90;60.10;;;;;;5076760;28;20401;-68
2022/05/14 07:56:17;;;;;;;1.53;1.43;;;20.90;60.10;;;;;;5076637;28;20421;-70
2022/05/14 07:58:43;;;;;;;1.93;1.83;;;20.90;60.00;;;;;;5076677;28;20397;-68
2022/05/14 08:01:09;;;;;;;1.80;1.70;;;20.90;60.00;;;;;;5076883;28;20511;-68
2022/05/14 08:03:35;;;;;;;1.87;1.50;;;20.90;60.00;;;;;;5076604;28;20163;-69
2022/05/14 08:06:01;;;;;;;1.70;1.60;;;20.90;59.80;;;;;;5076442;28;20432;-68
2022/05/14 08:08:27;;;;;;;1.30;1.30;;;20.90;60.00;;;;;;5076505;28;20401;-69
2022/05/14 08:10:54;;;;;;;1.30;1.20;;;20.90;59.80;;;;;;5076707;28;20260;-68
2022/05/14 08:13:21;;;;;;;1.50;1.40;;;20.80;60.00;;;;;;5079999;28;20422;-68
2022/05/14 08:15:48;;;;;;;1.57;1.47;;;20.90;60.00;;;;;;5088603;28;20523;-69
2022/05/14 08:18:15;;;;;;;1.80;1.70;;;20.90;59.80;;;;;;5086559;28;20413;-70
2022/05/14 08:20:42;;;;;;;1.90;1.80;;;20.90;59.90;;;;;;5090772;28;20535;-70
2022/05/14 08:25:56;;;;;;;1.67;1.47;;;20.80;59.80;;;;;;5081736;28;20913;-68
2022/05/14 08:28:22;;;;;;;1.93;1.80;;;20.80;59.80;;;;;;5075106;28;20405;-68
2022/05/14 08:30:48;;;;;;;1.80;1.70;;;20.80;60.00;;;;;;5075900;28;20543;-69
2022/05/14 08:33:13;;;;;;;1.43;1.33;;;20.80;59.90;;;;;;5075942;28;20175;-68
2022/05/14 08:35:40;;;;;;;2.00;1.90;;;20.80;60.00;;;;;;5075873;28;20175;-69
2022/05/14 08:38:08;;;;;;;1.70;1.60;;;20.90;59.90;;;;;;5075920;28;20198;-68
2022/05/14 08:40:41;;;;;;;1.70;1.60;;;20.80;59.60;;;;;;5075677;28;20508;-68
2022/05/14 08:43:16;;;;;;;1.20;1.20;;;20.80;59.80;;;;;;5075745;28;20832;-69
2022/05/14 08:45:41;;;;;;;1.60;1.50;;;20.80;59.80;;;;;;5075916;28;20500;-70
2022/05/14 08:48:19;;;;;;;1.80;1.70;;;20.80;59.80;;;;;;5074479;28;20947;-70
2022/05/14 08:50:54;;;;;;;1.60;1.50;;;20.80;59.80;;;;;;5079884;28;20206;-70
2022/05/14 08:53:24;;;;;;;1.70;1.60;;;20.80;59.80;;;;;;5080727;28;20488;-69
2022/05/14 08:56:07;;;;;;;1.90;1.80;;;20.80;59.90;;;;;;5081358;28;20424;-69
2022/05/14 08:58:57;;;;;;;2.10;1.77;;;20.90;59.80;;;;;;5095449;28;20400;-69
2022/05/14 09:01:27;;;;;;;1.63;1.53;;;20.80;59.60;;;;;;5094750;28;20411;-69
2022/05/14 09:03:53;;;;;;;1.60;1.50;;;20.80;59.90;;;;;;5095590;28;20402;-68
2022/05/14 09:06:19;;;;;;;1.53;1.43;;;20.80;59.80;;;;;;5095698;28;20515;-69
2022/05/14 09:08:45;;;;;;;1.60;1.50;;;20.90;59.90;;;;;;5095487;28;20166;-68
2022/05/14 09:11:29;;;;;;;2.00;1.90;;;20.90;59.90;;;;;;5095366;28;20786;-68
2022/05/14 09:14:00;;;;;;;1.73;1.63;;;20.80;59.90;;;;;;5094543;28;20147;-68
2022/05/14 09:16:36;;;;;;;1.40;1.30;;;20.80;59.70;;;;;;5095205;28;20416;-69
2022/05/14 09:19:15;;;;;;;1.40;1.30;;;20.80;59.80;;;;;;5095207;28;20490;-69
2022/05/14 09:21:50;;;;;;;1.90;1.80;;;20.80;59.90;;;;;;5095205;28;20384;-69
2022/05/14 09:24:30;;;;;;;1.77;1.67;;;20.90;59.90;;;;;;5095255;28;20892;-70
2022/05/14 09:27:09;;;;;;;1.97;1.50;;;20.90;59.90;;;;;;5095132;28;20455;-69
2022/05/14 09:29:40;;;;;;;1.20;1.20;;;20.90;59.80;;;;;;5095100;28;20430;-69
2022/05/14 09:32:20;;;;;;;1.60;1.50;;;20.90;59.90;;;;;;5095046;28;20389;-68
2022/05/14 09:34:47;;;;;;;1.73;1.63;;;20.80;59.90;;;;;;5094007;28;20981;-69
2022/05/14 09:37:17;;;;;;;1.70;1.60;;;20.80;59.90;;;;;;5094871;28;20424;-70
2022/05/14 09:39:42;;;;;;;2.00;1.90;;;20.80;59.90;;;;;;5094798;28;20725;-68
2022/05/14 09:42:46;;;;;;;1.90;1.80;;;20.80;59.90;;;;;;5093929;28;20409;-68
2022/05/14 09:45:23;;;;;;;1.50;1.40;;;20.80;59.70;;;;;;5036106;28;20718;-68
2022/05/14 09:47:49;;;;;;;1.47;1.27;;;20.80;59.90;;;;;;5089718;28;20525;-69
2022/05/14 09:50:29;;;;;;;1.80;1.70;;;20.80;59.70;;;;;;5094779;28;20452;-68
2022/05/14 09:53:01;;;;;;;1.80;1.70;;;20.80;59.80;;;;;;5094886;28;20392;-70
2022/05/14 09:55:43;;;;;;;1.77;1.67;;;20.80;59.80;;;;;;5094621;28;20796;-70
2022/05/14 09:58:22;;;;;;;1.70;1.60;;;20.80;59.90;;;;;;5094669;28;20403;-70
2022/05/14 10:01:06;;;;;;;1.50;1.40;;;20.80;59.80;;;;;;5094628;28;20408;-70
2022/05/14 10:04:30;;;;;;;1.83;1.73;;;20.80;59.70;;;;;;5094519;28;20452;-69
2022/05/14 10:07:02;;;;;;;3.10;1.53;;;20.80;59.70;;;;;;5078898;28;20447;-69
2022/05/14 10:09:37;;;;;;;1.90;1.80;;;20.80;59.60;;;;;;5094495;28;20404;-69
2022/05/14 10:12:24;;;;;;;1.50;1.40;;;20.80;59.70;;;;;;5094461;28;20388;-69
2022/05/14 10:14:49;;;;;;;1.23;1.23;;;20.80;59.80;;;;;;5094421;28;20472;-68
2022/05/14 10:17:43;;;;;;;1.70;1.60;;;20.80;59.80;;;;;;5094263;28;20452;-68
2022/05/14 10:20:46;;;;;;;1.93;1.80;;;20.80;59.80;;;;;;5094346;28;20239;-69
2022/05/14 10:27:07;;;;;;;1.13;1.13;;;20.80;59.80;;;;;;5094215;28;20422;-69
2022/05/14 10:29:46;;;;;;;1.57;1.47;;;20.80;59.80;;;;;;5094250;28;20712;-68
2022/05/14 10:32:19;;;;;;;1.73;1.50;;;20.80;59.70;;;;;;5094284;28;20391;-68
2022/05/14 10:35:07;;;;;;;1.80;1.70;;;20.80;59.50;;;;;;5094428;28;20409;-68
2022/05/14 10:37:34;;;;;;;1.60;1.50;;;20.80;59.60;;;;;;5094093;28;20416;-68
2022/05/14 10:40:13;;;;;;;1.97;1.83;;;20.80;59.60;;;;;;5094209;28;20424;-68
2022/05/14 10:42:56;;;;;;;2.30;1.93;;;20.80;59.70;;;;;;5094123;28;20387;-70
2022/05/14 10:45:32;;;;;;;1.50;1.40;;;20.80;59.60;;;;;;5093930;28;20415;-68
2022/05/14 10:48:01;;;;;;;2.23;2.13;;;20.80;59.80;;;;;;5093844;28;20451;-68
2022/05/14 10:50:30;;;;;;;2.30;2.10;;;20.80;59.80;;;;;;5094963;28;20476;-69
2022/05/14 10:52:58;;;;;;;1.80;1.70;;;20.80;59.60;;;;;;5098100;28;20412;-69
2022/05/14 10:55:29;;;;;;;2.20;2.10;;;20.80;59.70;;;;;;5097952;28;20432;-68
2022/05/14 10:58:00;;;;;;;1.97;1.87;;;20.80;59.60;;;;;;5098080;28;20384;-68
2022/05/14 11:00:30;;;;;;;2.43;2.23;;;20.80;59.70;;;;;;5098016;28;20425;-69
2022/05/14 11:02:58;;;;;;;2.47;2.27;;;20.80;59.50;;;;;;5097960;28;20399;-70
2022/05/14 11:05:36;;;;;;;1.83;1.73;;;20.80;59.40;;;;;;5097794;28;20408;-70
2022/05/14 11:08:32;;;;;;;2.10;1.90;;;20.80;59.70;;;;;;5097777;28;20399;-68
2022/05/14 11:11:23;;;;;;;1.80;1.70;;;20.80;59.70;;;;;;5096954;28;20487;-71
2022/05/14 11:13:59;;;;;;;2.00;1.77;;;20.80;59.50;;;;;;5097722;28;20479;-68
2022/05/14 11:16:35;;;;;;;1.60;1.50;;;20.80;59.60;;;;;;5096718;28;20438;-68
2022/05/14 11:19:04;;;;;;;1.63;1.53;;;20.80;59.40;;;;;;5097662;28;20392;-68
2022/05/14 11:21:56;;;;;;;1.80;1.70;;;20.80;59.60;;;;;;5097573;28;20396;-69
2022/05/14 11:24:52;;;;;;;2.00;1.90;;;20.80;59.20;;;;;;5095574;28;20431;-69
2022/05/14 11:27:33;;;;;;;1.97;1.87;;;20.80;59.40;;;;;;5088616;28;20775;-70
2022/05/14 11:30:10;;;;;;;1.63;1.53;;;20.80;59.40;;;;;;5097378;28;20434;-69
2022/05/14 11:32:47;;;;;;;1.80;1.70;;;20.80;59.50;;;;;;5097400;28;21022;-68
2022/05/14 11:35:14;;;;;;;1.63;1.40;;;20.80;59.60;;;;;;5097374;28;20412;-69
2022/05/14 11:37:44;;;;;;;2.10;2.00;;;20.80;59.60;;;;;;5097195;28;20503;-68
2022/05/14 11:40:16;;;;;;;1.80;1.53;;;20.80;59.20;;;;;;5096541;28;20708;-68
2022/05/14 11:42:43;;;;;;;1.80;1.70;;;20.80;59.10;;;;;;5097147;28;20412;-69
2022/05/14 11:45:20;;;;;;;2.30;2.03;;;20.80;59.30;;;;;;5097158;28;20440;-69
2022/05/14 11:48:08;;;;;;;1.73;1.63;;;20.80;59.50;;;;;;5096905;28;20483;-69
2022/05/14 11:50:42;;;;;;;3.30;2.17;;;20.80;59.30;;;;;;5096988;28;20428;-70
2022/05/14 11:53:13;;;;;;;1.70;1.60;;;20.80;59.10;;;;;;5095880;28;20482;-68
2022/05/14 11:55:48;;;;;;;1.67;1.57;;;20.80;59.40;;;;;;5097140;28;20470;-68
2022/05/14 11:58:21;;;;;;;2.17;1.97;;;20.80;59.40;;;;;;5096900;28;20387;-68
2022/05/14 12:00:50;;;;;;;2.30;2.10;;;20.80;59.40;;;;;;5096864;28;20826;-68
2022/05/14 12:03:24;;;;;;;1.90;1.80;;;20.80;59.30;;;;;;5095445;28;20405;-68
2022/05/14 12:06:20;;;;;;;1.70;1.60;;;20.80;59.40;;;;;;5095706;28;20436;-68
2022/05/14 12:09:07;;;;;;;1.80;1.70;;;20.80;59.30;;;;;;5095608;28;20412;-69
2022/05/14 12:11:57;;;;;;;1.70;1.60;;;20.80;59.10;;;;;;5096570;28;20469;-67
2022/05/14 12:14:34;;;;;;;1.90;1.80;;;20.80;59.30;;;;;;5096424;28;20385;-69
2022/05/14 12:17:03;;;;;;;1.53;1.43;;;20.80;59.30;;;;;;5096435;28;20427;-69
2022/05/14 12:19:39;;;;;;;1.60;1.50;;;20.80;59.20;;;;;;5096488;28;20404;-70
2022/05/14 12:22:08;;;;;;;1.87;1.77;;;20.80;59.30;;;;;;5096426;28;20712;-68
2022/05/14 12:24:37;;;;;;;2.07;1.80;;;20.80;59.10;;;;;;5096330;28;20889;-69
2022/05/14 12:27:07;;;;;;;1.80;1.70;;;20.80;59.20;;;;;;5095639;28;20510;-68
2022/05/14 12:29:34;;;;;;;1.73;1.63;;;20.80;59.40;;;;;;5079584;28;20946;-68
2022/05/14 12:34:51;;;;;;;1.70;1.60;;;20.80;58.90;;;;;;5087102;28;20419;-70
2022/05/14 12:37:26;;;;;;;2.00;1.80;;;20.80;59.20;;;;;;5083583;28;20794;-68
2022/05/14 12:39:56;;;;;;;2.43;2.23;;;20.80;59.20;;;;;;5096076;28;20199;-68
2022/05/14 12:42:48;;;;;;;2.00;1.90;;;20.80;59.10;;;;;;5096099;28;20802;-68
2022/05/14 12:45:13;;;;;;;1.97;1.70;;;20.80;59.30;;;;;;5093810;28;20436;-69
2022/05/14 12:47:39;;;;;;;2.50;2.30;;;20.80;59.20;;;;;;5094635;28;20470;-69
2022/05/14 12:50:18;;;;;;;2.00;1.90;;;20.80;59.20;;;;;;5095825;28;20628;-70
2022/05/14 12:52:54;;;;;;;2.00;1.90;;;20.80;59.00;;;;;;5090838;28;20252;-68
2022/05/14 12:55:22;;;;;;;1.87;1.77;;;20.80;59.20;;;;;;5074497;28;20423;-68
2022/05/14 12:57:48;;;;;;;2.70;1.90;;;20.80;59.30;;;;;;5075388;28;20419;-70
2022/05/14 13:00:17;;;;;;;1.83;1.60;;;20.80;59.30;;;;;;5075129;28;20895;-68
2022/05/14 13:02:47;;;;;;;2.20;1.60;;;20.80;59.20;;;;;;5075347;28;20397;-68
2022/05/14 13:05:31;;;;;;;2.73;2.07;;;20.80;59.20;;;;;;5074350;28;20483;-67
2022/05/14 13:08:06;;;;;;;2.10;2.00;;;20.80;59.00;;;;;;5075292;28;20400;-69
2022/05/14 13:10:32;;;;;;;2.20;2.00;;;20.80;59.10;;;;;;5075176;28;20910;-68
2022/05/14 13:13:00;;;;;;;1.77;1.50;;;20.80;59.20;;;;;;5074805;28;20511;-70
2022/05/14 13:15:35;;;;;;;3.33;1.90;;;20.80;59.00;;;;;;5075072;28;20401;-69
2022/05/14 13:18:27;;;;;;;1.80;1.70;;;20.80;59.20;;;;;;5075078;28;20489;-70
2022/05/14 13:21:04;;;;;;;1.80;1.43;;;20.80;58.90;;;;;;5075304;28;20398;-69
2022/05/14 13:23:31;;;;;;;1.83;1.73;;;20.80;59.00;;;;;;5075318;28;20393;-68